^^
MeteoGriva-Weather Station Historical Data
Daily Summary for April 12, 2020 Units:  Metric    English   Both
Daily Weekly Monthly Yearly Custom
  High: Low: Average:
Temperature: 11.8 °C 4.9 °C 8.2 °C
Dew Point: 8.6 °C 4.8 °C 6.3 °C
Humidity: 99% 77% 88%
Wind Speed: 17.3km/h 0km/h 2.4km/h
Wind Gust: 36.4km/h - -
Wind- - SW
Pressure: 1019.0 hPa 1006.8 hPa -
Precipitation: 0.2 mm    
Historical Graphs
 
 
Tabular Data for April 12, 2020
Time Temperature Dew Point Pressure Wind Wind Speed Wind Gust Humidity Rainfall Rate (Hourly) solar
00:04 11.6 °C 8.6 °C 1006.8 hPa Calm     81.6% 0.0 mm 0 W/m2
00:09 11.6 °C 8.2 °C 1006.8 hPa Calm     79.8% 0.0 mm 0 W/m2
00:14 11.5 °C 8.1 °C 1006.8 hPa Calm     79.3% 0.0 mm 0 W/m2
00:19 11.5 °C 8.2 °C 1006.8 hPa Calm     80% 0.0 mm 0 W/m2
00:24 11.5 °C 8.2 °C 1007.1 hPa Calm     79.8% 0.0 mm 0 W/m2
00:29 11.5 °C 8.1 °C 1006.8 hPa Calm     79.5% 0.0 mm 0 W/m2
00:34 11.5 °C 8.3 °C 1007.5 hPa Calm     80.2% 0.0 mm 0 W/m2
00:39 11.4 °C 8.1 °C 1007.5 hPa Calm     79.9% 0.0 mm 0 W/m2
00:44 11.4 °C 8.1 °C 1007.1 hPa Calm     80% 0.0 mm 0 W/m2
00:49 11.3 °C 8.2 °C 1007.5 hPa Calm     81.2% 0.0 mm 0 W/m2
00:54 11.3 °C 8 °C 1007.5 hPa Calm     80.1% 0.0 mm 0 W/m2
00:59 11.7 °C 8.4 °C 1007.1 hPa Calm     79.8% 0.0 mm 0 W/m2
01:04 11.8 °C 8.5 °C 1007.1 hPa Calm     80% 0.0 mm 0 W/m2
01:09 11.7 °C 8.6 °C 1007.5 hPa Calm     81.4% 0.0 mm 0 W/m2
01:14 11.5 °C 8.6 °C 1007.5 hPa West 0.3 km/h 4 km/h 82.4% 0.0 mm 0 W/m2
01:19 11.2 °C 8.1 °C 1007.5 hPa Calm     81.2% 0.0 mm 0 W/m2
01:24 11.2 °C 7.9 °C 1007.5 hPa Calm     80.2% 0.0 mm 0 W/m2
01:29 11.2 °C 8.1 °C 1007.5 hPa Calm   7.9 km/h 81.7% 0.0 mm 0 W/m2
01:34 11.1 °C 8.1 °C 1007.8 hPa Calm   4 km/h 82.2% 0.0 mm 0 W/m2
01:39 10.6 °C 7.8 °C 1007.5 hPa Calm     82.6% 0.0 mm 0 W/m2
01:44 10.4 °C 7.5 °C 1007.5 hPa Calm     82% 0.0 mm 0 W/m2
01:49 10.4 °C 7.6 °C 1007.8 hPa NNE 0.2 km/h 4 km/h 83.2% 0.0 mm 0 W/m2
01:54 10.3 °C 7.8 °C 1007.8 hPa Calm     84.6% 0.0 mm 0 W/m2
01:59 10.4 °C 7.6 °C 1007.8 hPa Calm     82.7% 0.0 mm 0 W/m2
02:04 10.4 °C 7.8 °C 1007.8 hPa North 0.3 km/h 4 km/h 84.2% 0.0 mm 0 W/m2
02:09 10.3 °C 7.5 °C 1008.1 hPa West 1.3 km/h 7.9 km/h 82.7% 0.0 mm 0 W/m2
02:14 10.3 °C 7.7 °C 1008.1 hPa Calm     84.1% 0.0 mm 0 W/m2
02:19 10 °C 7.5 °C 1008.1 hPa Calm     84.4% 0.0 mm 0 W/m2
02:24 9.7 °C 7.3 °C 1008.1 hPa Calm     85.2% 0.0 mm 0 W/m2
02:29 9.7 °C 7.4 °C 1008.1 hPa Calm     85.7% 0.0 mm 0 W/m2
02:34 9.6 °C 7.4 °C 1008.1 hPa Calm     86.3% 0.0 mm 0 W/m2
02:39 9.1 °C 7.1 °C 1008.5 hPa NW 0.4 km/h 7.9 km/h 87.3% 0.0 mm 0 W/m2
02:44 8.8 °C 6.9 °C 1008.1 hPa Calm     88% 0.0 mm 0 W/m2
02:49 8.8 °C 6.9 °C 1008.5 hPa Calm     88% 0.0 mm 0 W/m2
02:54 8.8 °C 6.8 °C 1008.1 hPa Calm     87.3% 0.0 mm 0 W/m2
02:59 8.9 °C 7 °C 1008.5 hPa Calm     87.6% 0.0 mm 0 W/m2
03:04 9.1 °C 6.9 °C 1008.5 hPa Calm     86.2% 0.0 mm 0 W/m2
03:09 9.1 °C 7.1 °C 1008.5 hPa West 0.3 km/h 4 km/h 86.9% 0.0 mm 0 W/m2
03:14 9 °C 7.1 °C 1008.1 hPa Calm   4 km/h 87.6% 0.0 mm 0 W/m2
03:19 8.9 °C 6.9 °C 1008.5 hPa Calm     87% 0.0 mm 0 W/m2
03:24 8.8 °C 6.8 °C 1008.1 hPa Calm   4 km/h 86.9% 0.0 mm 0 W/m2
03:29 8.8 °C 6.8 °C 1008.1 hPa Calm     86.9% 0.0 mm 0 W/m2
03:34 8.8 °C 6.8 °C 1008.5 hPa Calm     87% 0.0 mm 0 W/m2
03:39 8.9 °C 6.8 °C 1008.5 hPa Calm     86.8% 0.0 mm 0 W/m2
03:44 8.9 °C 6.8 °C 1008.5 hPa Calm     86.6% 0.0 mm 0 W/m2
03:49 9 °C 6.8 °C 1008.5 hPa Calm     86% 0.0 mm 0 W/m2
03:54 8.9 °C 6.8 °C 1008.5 hPa Calm     86.2% 0.0 mm 0 W/m2
03:59 8.9 °C 6.7 °C 1008.5 hPa Calm     85.9% 0.0 mm 0 W/m2
04:04 8.8 °C 6.4 °C 1008.5 hPa Calm     85.1% 0.0 mm 0 W/m2
04:09 8.8 °C 6.3 °C 1008.5 hPa Calm     84.4% 0.0 mm 0 W/m2
04:14 9 °C 6.3 °C 1008.5 hPa WNW 1 km/h 7.9 km/h 83.2% 0.0 mm 0 W/m2
04:19 9.4 °C 6.9 °C 1008.5 hPa NNW 0.2 km/h 7.9 km/h 84.4% 0.0 mm 0 W/m2
04:24 9.6 °C 7.4 °C 1008.5 hPa North 0.2 km/h 7.9 km/h 86.3% 0.0 mm 0 W/m2
04:29 9.4 °C 7.3 °C 1008.5 hPa Calm   4 km/h 86.4% 0.0 mm 0 W/m2
04:34 9.3 °C 6.9 °C 1008.5 hPa Calm     84.9% 0.0 mm 0 W/m2
04:39 9.3 °C 6.7 °C 1008.8 hPa Calm     84% 0.0 mm 0 W/m2
04:44 9.4 °C 6.7 °C 1008.8 hPa Calm     83.6% 0.0 mm 0 W/m2
04:49 9.4 °C 6.6 °C 1008.8 hPa Calm     82.1% 0.0 mm 0 W/m2
04:54 9.5 °C 6.7 °C 1008.8 hPa Calm     82.8% 0.0 mm 0 W/m2
04:59 9.5 °C 6.8 °C 1008.8 hPa Calm     83.1% 0.0 mm 0 W/m2
05:04 9.4 °C 6.7 °C 1008.8 hPa Calm     83.4% 0.0 mm 0 W/m2
05:09 9.3 °C 6.8 °C 1008.8 hPa North 0.3 km/h 4 km/h 84.3% 0.0 mm 0 W/m2
05:14 9.3 °C 6.9 °C 1009.1 hPa Calm   4 km/h 85.1% 0.0 mm 0 W/m2
05:19 9.2 °C 6.8 °C 1009.1 hPa WNW 0.4 km/h 4 km/h 85% 0.0 mm 0 W/m2
05:24 9.2 °C 6.5 °C 1009.1 hPa WNW 0.4 km/h 4 km/h 83.4% 0.0 mm 0 W/m2
05:29 9.2 °C 7 °C 1009.1 hPa North 2.6 km/h 12.2 km/h 86.1% 0.0 mm 0 W/m2
05:34 9 °C 7 °C 1009.5 hPa NW 1.2 km/h 12.2 km/h 87% 0.0 mm 0 W/m2
05:39 8.9 °C 6.8 °C 1009.1 hPa North 2 km/h 7.9 km/h 86.6% 0.0 mm 0 W/m2
05:44 8.8 °C 6.6 °C 1009.1 hPa North 0.1 km/h 4 km/h 86% 0.0 mm 0 W/m2
05:49 8.8 °C 6.7 °C 1009.1 hPa NNW 0.9 km/h 4 km/h 86.3% 0.0 mm 0 W/m2
05:54 8.9 °C 6.4 °C 1009.1 hPa NNW 0.3 km/h 4 km/h 84.6% 0.0 mm 0 W/m2
05:59 9 °C 6.4 °C 1009.5 hPa Calm   4 km/h 84% 0.0 mm 0 W/m2
06:04 9.3 °C 6.7 °C 1009.5 hPa Calm     84% 0.0 mm 0 W/m2
06:09 9.3 °C 6.8 °C 1009.5 hPa Calm     84.4% 0.0 mm 0 W/m2
06:14 9.3 °C 7 °C 1009.8 hPa Calm     85.7% 0.0 mm 0 W/m2
06:19 9.3 °C 6.9 °C 1009.8 hPa Calm   4 km/h 85.2% 0.0 mm 0 W/m2
06:24 9.4 °C 6.8 °C 1009.8 hPa Calm   4 km/h 84% 0.0 mm 0 W/m2
06:29 9.3 °C 6.9 °C 1010.2 hPa Calm     85% 0.0 mm 0 W/m2
06:34 9.3 °C 6.9 °C 1009.8 hPa Calm     84.9% 0.0 mm 0 W/m2
06:39 9.2 °C 6.9 °C 1010.2 hPa Calm     85.4% 0.0 mm 0 W/m2
06:44 9 °C 6.8 °C 1009.8 hPa Calm     86% 0.0 mm 0 W/m2
06:49 9 °C 7 °C 1009.8 hPa Calm     86.8% 0.0 mm 0 W/m2
06:54 9 °C 6.8 °C 1010.2 hPa Calm     86% 0.0 mm 0 W/m2
06:59 8.9 °C 6.8 °C 1010.2 hPa Calm     86.8% 0.0 mm 0 W/m2
07:04 8.5 °C 6.6 °C 1010.2 hPa Calm     87.8% 0.0 mm 0 W/m2
07:09 8.5 °C 6.7 °C 1010.2 hPa Calm     88.4% 0.0 mm 0 W/m2
07:14 8.4 °C 6.4 °C 1010.2 hPa Calm     87.2% 0.0 mm 0 W/m2
07:19 8.4 °C 6.4 °C 1010.2 hPa Calm     87.2% 0.0 mm 0 W/m2
07:24 8.4 °C 6.5 °C 1010.5 hPa Calm   4 km/h 87.6% 0.0 mm 0 W/m2
07:29 8.4 °C 6.5 °C 1010.8 hPa Calm     88% 0.0 mm 0 W/m2
07:34 8.3 °C 6.6 °C 1011.2 hPa Calm     88.9% 0.0 mm 2 W/m2
07:39 8.3 °C 6.4 °C 1011.5 hPa Calm     88.1% 0.0 mm 5 W/m2
07:44 8.2 °C 6.3 °C 1011.5 hPa Calm     88% 0.0 mm 7 W/m2
07:49 8.2 °C 6.2 °C 1011.5 hPa Calm     87.1% 0.0 mm 10 W/m2
07:54 8.2 °C 6.1 °C 1011.5 hPa Calm     86.2% 0.0 mm 17 W/m2
07:59 8.3 °C 6 °C 1011.9 hPa NE 0.9 km/h 7.9 km/h 85.1% 0.0 mm 19 W/m2
08:04 9.1 °C 6.5 °C 1011.9 hPa North 1.8 km/h 16.3 km/h 84% 0.0 mm 22 W/m2
08:09 9.1 °C 6.5 °C 1011.5 hPa North 3 km/h 16.3 km/h 84% 0.0 mm 23 W/m2
08:14 9.1 °C 6.4 °C 1011.9 hPa NW 1.5 km/h 16.3 km/h 83.2% 0.0 mm 27 W/m2
08:19 9.2 °C 6.4 °C 1011.9 hPa NNW 3.4 km/h 12.2 km/h 83% 0.0 mm 29 W/m2
08:24 9.7 °C 6.8 °C 1011.9 hPa NNE 9.2 km/h 12.2 km/h 82% 0.0 mm 27 W/m2
08:29 9.7 °C 6.6 °C 1012.2 hPa North 11 km/h 24.1 km/h 81.2% 0.0 mm 32 W/m2
08:34 9.7 °C 6.6 °C 1012.2 hPa NNW 13.3 km/h 24.1 km/h 81.1% 0.0 mm 31 W/m2
08:39 9.7 °C 6.6 °C 1012.5 hPa North 13 km/h 24.1 km/h 81% 0.0 mm 36 W/m2
08:44 9.8 °C 6.7 °C 1012.5 hPa NNW 11.3 km/h 20.1 km/h 81% 0.0 mm 38 W/m2
08:49 9.7 °C 6.6 °C 1012.9 hPa North 9.6 km/h 24.1 km/h 81% 0.0 mm 35 W/m2
08:54 9.7 °C 6.4 °C 1012.9 hPa NNW 13.3 km/h 28 km/h 80% 0.0 mm 35 W/m2
08:59 9.8 °C 6.3 °C 1012.9 hPa NNW 6.2 km/h 28 km/h 79.2% 0.0 mm 34 W/m2
09:04 9.8 °C 6.6 °C 1013.2 hPa North 5.5 km/h 16.3 km/h 80% 0.0 mm 22 W/m2
09:09 9.8 °C 6.5 °C 1013.5 hPa NNE 2.8 km/h 16.3 km/h 80% 0.0 mm 22 W/m2
09:14 9.8 °C 6.7 °C 1013.5 hPa North 1.6 km/h 12.2 km/h 80.9% 0.0 mm 31 W/m2
09:19 9.7 °C 6.7 °C 1013.5 hPa North 1.9 km/h 12.2 km/h 81.4% 0.0 mm 35 W/m2
09:24 9.1 °C 6.3 °C 1013.5 hPa North 0.8 km/h 7.9 km/h 82% 0.0 mm 46 W/m2
09:29 9 °C 6.3 °C 1013.9 hPa NNE 3.8 km/h 7.9 km/h 82.9% 0.0 mm 68 W/m2
09:34 9 °C 6.3 °C 1013.9 hPa NNW 5.8 km/h 16.3 km/h 83% 0.0 mm 82 W/m2
09:39 8.9 °C 6.1 °C 1013.9 hPa NNE 3.7 km/h 16.3 km/h 82.7% 0.0 mm 73 W/m2
09:44 8.9 °C 6 °C 1014.2 hPa North 6.1 km/h 16.3 km/h 82% 0.0 mm 65 W/m2
09:49 8.9 °C 6 °C 1014.2 hPa North 3 km/h 12.2 km/h 82.2% 0.0 mm 64 W/m2
09:54 8.9 °C 6 °C 1014.2 hPa North 0.9 km/h 12.2 km/h 82% 0.0 mm 70 W/m2
09:59 8.9 °C 6 °C 1014.6 hPa North 8.4 km/h 20.1 km/h 82% 0.0 mm 66 W/m2
10:04 8.8 °C 5.8 °C 1014.2 hPa NNE 6.7 km/h 24.1 km/h 82% 0.0 mm 72 W/m2
10:09 8.7 °C 5.8 °C 1014.2 hPa NNW 7.1 km/h 24.1 km/h 82.1% 0.0 mm 79 W/m2
10:14 8.7 °C 5.8 °C 1014.6 hPa North 6.4 km/h 24.1 km/h 82% 0.0 mm 55 W/m2
10:19 8.7 °C 5.8 °C 1014.6 hPa North 7 km/h 20.1 km/h 82% 0.0 mm 59 W/m2
10:24 8.6 °C 5.7 °C 1014.6 hPa NE 6 km/h 20.1 km/h 82% 0.0 mm 72 W/m2
10:29 8.6 °C 5.7 °C 1014.6 hPa North 6.6 km/h 16.3 km/h 82% 0.0 mm 67 W/m2
10:34 8.6 °C 5.7 °C 1014.6 hPa North 2.5 km/h 16.3 km/h 82% 0.0 mm 65 W/m2
10:39 8.6 °C 5.7 °C 1014.6 hPa North 3.7 km/h 16.3 km/h 82% 0.0 mm 78 W/m2
10:44 8.6 °C 5.7 °C 1014.9 hPa North 10.4 km/h 20.1 km/h 82% 0.0 mm 75 W/m2
10:49 8.6 °C 5.7 °C 1014.9 hPa NNE 12.4 km/h 20.1 km/h 82% 0.0 mm 79 W/m2
10:54 8.6 °C 5.7 °C 1014.9 hPa North 11.1 km/h 24.1 km/h 82% 0.0 mm 87 W/m2
10:59 8.6 °C 5.7 °C 1015.2 hPa North 8.3 km/h 24.1 km/h 82% 0.0 mm 107 W/m2
11:04 8.5 °C 5.7 °C 1015.2 hPa North 6.7 km/h 20.1 km/h 82% 0.0 mm 84 W/m2
11:09 8.5 °C 5.7 °C 1015.2 hPa North 11 km/h 24.1 km/h 82.7% 0.0 mm 145 W/m2
11:14 8.4 °C 5.8 °C 1015.2 hPa NNW 13.3 km/h 28 km/h 83.2% 0.0 mm 162 W/m2
11:19 8.3 °C 5.8 °C 1015.2 hPa NNW 13.8 km/h 36.4 km/h 83.8% 0.0 mm 164 W/m2
11:24 8 °C 5.5 °C 1015.6 hPa North 17.3 km/h 36.4 km/h 84.3% 0.0 mm 97 W/m2
11:29 7.8 °C 5.4 °C 1015.6 hPa North 13.5 km/h 32.3 km/h 85.1% 0.0 mm 64 W/m2
11:34 7.7 °C 5.5 °C 1015.6 hPa North 10.3 km/h 28 km/h 86% 0.0 mm 69 W/m2
11:39 7.6 °C 5.6 °C 1015.9 hPa NNW 11.7 km/h 24.1 km/h 87% 0.0 mm 62 W/m2
11:44 7.3 °C 5.3 °C 1015.9 hPa NNE 12.7 km/h 28 km/h 87% 0.0 mm 65 W/m2
11:49 7.1 °C 5.1 °C 1015.9 hPa North 13.3 km/h 28 km/h 87% 0.0 mm 56 W/m2
11:54 7.2 °C 5 °C 1016.3 hPa North 13.3 km/h 28 km/h 86.2% 0.0 mm 61 W/m2
11:59 7.2 °C 5 °C 1016.3 hPa North 10.9 km/h 24.1 km/h 86% 0.0 mm 63 W/m2
12:04 7.4 °C 5.2 °C 1016.3 hPa North 14.9 km/h 28 km/h 86% 0.0 mm 62 W/m2
12:09 7.4 °C 5.2 °C 1016.3 hPa NNW 14.2 km/h 28 km/h 86% 0.0 mm 52 W/m2
12:14 7.4 °C 5.2 °C 1016.3 hPa NNW 15 km/h 32.3 km/h 86% 0.0 mm 72 W/m2
12:19 7.4 °C 5.2 °C 1016.3 hPa NNW 14.4 km/h 24.1 km/h 85.7% 0.0 mm 108 W/m2
12:24 7.8 °C 5.3 °C 1016.3 hPa North 7.7 km/h 20.1 km/h 84.3% 0.0 mm 147 W/m2
12:29 8 °C 5.5 °C 1016.3 hPa North 10 km/h 20.1 km/h 84% 0.0 mm 136 W/m2
12:34 8 °C 5.4 °C 1016.3 hPa NNW 9 km/h 16.3 km/h 83.7% 0.0 mm 143 W/m2
12:39 8.1 °C 5.3 °C 1016.3 hPa North 11.1 km/h 24.1 km/h 82.9% 0.0 mm 169 W/m2
12:44 8.5 °C 5.5 °C 1015.9 hPa North 11.8 km/h 24.1 km/h 81.6% 0.0 mm 302 W/m2
12:49 8.7 °C 5.7 °C 1015.9 hPa North 10 km/h 24.1 km/h 81.4% 0.0 mm 135 W/m2
12:54 8.7 °C 5.8 °C 1015.9 hPa North 8.8 km/h 24.1 km/h 82% 0.0 mm 132 W/m2
12:59 8.6 °C 5.9 °C 1015.9 hPa North 15.4 km/h 28 km/h 82.8% 0.0 mm 150 W/m2
13:04 8.5 °C 5.7 °C 1015.9 hPa North 12.5 km/h 28 km/h 82.3% 0.0 mm 165 W/m2
13:09 8.4 °C 5.5 °C 1015.9 hPa North 12.7 km/h 28 km/h 81.9% 0.0 mm 162 W/m2
13:14 8.5 °C 5.6 °C 1016.3 hPa NNW 14.1 km/h 24.1 km/h 82% 0.0 mm 145 W/m2
13:19 8.4 °C 5.5 °C 1015.9 hPa North 13.3 km/h 28 km/h 82% 0.0 mm 112 W/m2
13:24 8.4 °C 5.5 °C 1015.9 hPa North 10.2 km/h 20.1 km/h 82% 0.0 mm 108 W/m2
13:29 8.5 °C 5.5 °C 1015.6 hPa North 10.2 km/h 20.1 km/h 81.7% 0.0 mm 109 W/m2
13:34 8.5 °C 5.4 °C 1015.6 hPa North 5.2 km/h 20.1 km/h 81.1% 0.0 mm 94 W/m2
13:39 8.5 °C 5.4 °C 1015.9 hPa North 3.7 km/h 12.2 km/h 81% 0.0 mm 89 W/m2
13:44 8.6 °C 5.6 °C 1015.9 hPa North 6.3 km/h 20.1 km/h 81.6% 0.0 mm 69 W/m2
13:49 8.6 °C 5.7 °C 1015.6 hPa North 6.4 km/h 16.3 km/h 82% 0.0 mm 71 W/m2
13:54 8.7 °C 5.8 °C 1015.6 hPa NNW 4.8 km/h 16.3 km/h 82% 0.0 mm 54 W/m2
13:59 8.7 °C 6 °C 1015.9 hPa North 4 km/h 16.3 km/h 83.4% 0.0 mm 68 W/m2
14:04 8.5 °C 6.3 °C 1015.6 hPa North 5.9 km/h 16.3 km/h 86% 0.0 mm 94 W/m2
14:09 8.2 °C 6.5 °C 1015.9 hPa North 6 km/h 16.3 km/h 88.8% 0.0 mm 104 W/m2
14:14 8.2 °C 6.8 °C 1015.6 hPa NNW 4.4 km/h 16.3 km/h 90.9% 0.0 mm 88 W/m2
14:19 8.2 °C 6.7 °C 1015.6 hPa NNW 7.8 km/h 16.3 km/h 90.4% 0.0 mm 96 W/m2
14:24 8.2 °C 6.6 °C 1015.6 hPa North 4.6 km/h 12.2 km/h 89.1% 0.0 mm 97 W/m2
14:29 8.3 °C 6.5 °C 1015.6 hPa NNW 3.4 km/h 12.2 km/h 88.3% 0.0 mm 111 W/m2
14:34 8.3 °C 6.3 °C 1015.2 hPa North 0.2 km/h 7.9 km/h 86.9% 0.0 mm 124 W/m2
14:39 8.4 °C 6.1 °C 1015.2 hPa Calm     85% 0.0 mm 209 W/m2
14:44 9 °C 6.3 °C 1015.2 hPa NW 0.1 km/h 4 km/h 83% 0.0 mm 382 W/m2
14:49 9.8 °C 6.9 °C 1015.2 hPa Calm   4 km/h 82.2% 0.0 mm 400 W/m2
14:54 9.8 °C 7 °C 1015.2 hPa ENE 0.7 km/h 4 km/h 82.4% 0.0 mm 233 W/m2
14:59 9.8 °C 6.7 °C 1015.2 hPa ENE 0.6 km/h 7.9 km/h 80.8% 0.0 mm 358 W/m2
15:04 9.9 °C 6.3 °C 1015.2 hPa East 3.2 km/h 12.2 km/h 78.7% 0.0 mm 392 W/m2
15:09 10.1 °C 6.3 °C 1015.2 hPa NE 3.1 km/h 12.2 km/h 77.3% 0.0 mm 410 W/m2
15:14 10.2 °C 6.3 °C 1015.2 hPa ENE 3.3 km/h 16.3 km/h 77% 0.0 mm 154 W/m2
15:19 10.1 °C 6.4 °C 1015.2 hPa NNE 1.6 km/h 12.2 km/h 78% 0.0 mm 120 W/m2
15:24 10.1 °C 6.4 °C 1015.2 hPa NNW 1.1 km/h 12.2 km/h 78.1% 0.0 mm 106 W/m2
15:29 9.8 °C 6.2 °C 1015.2 hPa NNE 0.1 km/h 4 km/h 78.3% 0.0 mm 106 W/m2
15:34 9.8 °C 6.3 °C 1015.2 hPa East 0.8 km/h 7.9 km/h 79.2% 0.0 mm 108 W/m2
15:39 9.8 °C 7 °C 1015.2 hPa East 1 km/h 7.9 km/h 82.4% 0.0 mm 88 W/m2
15:44 9.7 °C 7.1 °C 1015.2 hPa ESE 0.4 km/h 4 km/h 84% 0.0 mm 83 W/m2
15:49 9.4 °C 6.8 °C 1015.2 hPa Calm   4 km/h 84% 0.0 mm 80 W/m2
15:54 9.4 °C 7 °C 1015.6 hPa SSE 0.6 km/h 7.9 km/h 85% 0.0 mm 64 W/m2
15:59 9.3 °C 7.1 °C 1015.6 hPa Calm     86% 0.0 mm 56 W/m2
16:04 9.1 °C 7 °C 1015.9 hPa Calm     86% 0.0 mm 46 W/m2
16:09 8.8 °C 6.6 °C 1015.9 hPa Calm     86% 0.0 mm 44 W/m2
16:14 8.7 °C 6.7 °C 1015.6 hPa Calm     87.1% 0.0 mm 43 W/m2
16:19 8.6 °C 6.7 °C 1015.9 hPa Calm     87.9% 0.0 mm 37 W/m2
16:24 8.5 °C 6.5 °C 1015.9 hPa Calm     87.4% 0.0 mm 26 W/m2
16:29 8.2 °C 6.3 °C 1015.9 hPa Calm     88% 0.0 mm 28 W/m2
16:34 8.2 °C 6.3 °C 1015.9 hPa Calm     88% 0.0 mm 27 W/m2
16:39 8.2 °C 6.3 °C 1015.6 hPa Calm     88.3% 0.0 mm 30 W/m2
16:44 8.2 °C 6.5 °C 1015.6 hPa Calm     89% 0.0 mm 20 W/m2
16:49 8 °C 6.4 °C 1015.6 hPa Calm     89.3% 0.0 mm 21 W/m2
16:54 8 °C 6.5 °C 1015.9 hPa Calm     90.1% 0.0 mm 19 W/m2
16:59 8 °C 6.6 °C 1015.9 hPa Calm     90.8% 0.0 mm 11 W/m2
17:04 8 °C 6.7 °C 1015.9 hPa Calm     91.4% 0.0 mm 12 W/m2
17:09 7.7 °C 6.3 °C 1015.6 hPa Calm     91% 0.0 mm 10 W/m2
17:14 7.7 °C 6.4 °C 1015.6 hPa Calm     91.7% 0.0 mm 9 W/m2
17:19 7.7 °C 6.5 °C 1015.6 hPa Calm     92% 0.0 mm 19 W/m2
17:24 7.7 °C 6.5 °C 1015.2 hPa Calm     92.5% 0.0 mm 23 W/m2
17:29 7.5 °C 6.6 °C 1015.2 hPa Calm     93.8% 0.0 mm 22 W/m2
17:34 7.5 °C 6.5 °C 1015.2 hPa Calm     93.6% 0.0 mm 18 W/m2
17:39 7.5 °C 6.4 °C 1015.6 hPa Calm     92.9% 0.0 mm 8 W/m2
17:44 7.5 °C 6.5 °C 1015.2 hPa Calm     93.4% 0.0 mm 5 W/m2
17:49 7.3 °C 6.3 °C 1015.6 hPa Calm     93.1% 0.0 mm 3 W/m2
17:54 7.3 °C 6.1 °C 1015.6 hPa Calm     92% 0.0 mm 0 W/m2
17:59 7.3 °C 6.1 °C 1015.6 hPa Calm     92.2% 0.0 mm 0 W/m2
18:04 7.3 °C 6.1 °C 1015.9 hPa Calm     92% 0.0 mm 0 W/m2
18:09 7.2 °C 6.1 °C 1015.9 hPa Calm     92.8% 0.0 mm 0 W/m2
18:14 7.2 °C 6.1 °C 1015.6 hPa Calm     93.2% 0.0 mm 0 W/m2
18:19 7.1 °C 6.2 °C 1015.9 hPa Calm     94% 0.0 mm 0 W/m2
18:24 7.1 °C 6.2 °C 1015.9 hPa Calm     94% 0.0 mm 0 W/m2
18:29 6.8 °C 5.9 °C 1016.3 hPa Calm     94% 0.0 mm 0 W/m2
18:34 6.8 °C 6.1 °C 1016.3 hPa Calm     94.9% 0.0 mm 0 W/m2
18:39 6.8 °C 6.1 °C 1016.3 hPa Calm     95% 0.0 mm 0 W/m2
18:44 6.7 °C 6 °C 1016.3 hPa Calm     94.8% 0.0 mm 0 W/m2
18:49 6.8 °C 6 °C 1016.6 hPa Calm     94.4% 0.0 mm 0 W/m2
18:54 6.8 °C 6.2 °C 1016.6 hPa Calm     95.7% 0.0 mm 0 W/m2
18:59 6.8 °C 6.2 °C 1016.6 hPa Calm     95.8% 0.0 mm 0 W/m2
19:04 6.8 °C 6.1 °C 1016.3 hPa Calm     95.2% 0.0 mm 0 W/m2
19:09 6.7 °C 6.2 °C 1016.6 hPa Calm     96.6% 0.0 mm 0 W/m2
19:14 6.6 °C 6.2 °C 1016.9 hPa Calm     97% 0.0 mm 0 W/m2
19:19 6.6 °C 6.2 °C 1016.9 hPa Calm     97% 0.0 mm 0 W/m2
19:24 6.6 °C 6.1 °C 1016.9 hPa Calm     96.3% 0.0 mm 0 W/m2
19:29 6.8 °C 6.4 °C 1016.9 hPa Calm     97.7% 1.8 mm 0 W/m2
19:34 6.7 °C 6.5 °C 1016.9 hPa Calm     98.4% 1.8 mm 0 W/m2
19:39 6.7 °C 6.6 °C 1016.6 hPa Calm     99% 1.8 mm 0 W/m2
19:44 6.7 °C 6.6 °C 1016.6 hPa Calm     99% 0.0 mm 0 W/m2
19:49 6.2 °C 6.1 °C 1016.9 hPa Calm     99% 0.0 mm 0 W/m2
19:54 6 °C 5.9 °C 1016.6 hPa Calm     99% 0.0 mm 0 W/m2
19:59 6 °C 5.9 °C 1016.6 hPa Calm     99% 0.0 mm 0 W/m2
20:04 6 °C 5.9 °C 1016.6 hPa Calm     99% 0.0 mm 0 W/m2
20:09 5.9 °C 5.8 °C 1016.6 hPa Calm     99% 0.0 mm 0 W/m2
20:14 5.9 °C 5.8 °C 1016.9 hPa Calm     99% 0.0 mm 0 W/m2
20:19 5.9 °C 5.8 °C 1016.9 hPa Calm     99% 0.0 mm 0 W/m2
20:24 5.9 °C 5.8 °C 1016.9 hPa Calm     99% 0.0 mm 0 W/m2
20:29 6 °C 5.9 °C 1016.9 hPa Calm     99% 0.0 mm 0 W/m2
20:34 6 °C 5.9 °C 1016.9 hPa Calm     99% 0.0 mm 0 W/m2
20:39 6 °C 5.9 °C 1016.9 hPa Calm     99% 0.0 mm 0 W/m2
20:44 5.9 °C 5.8 °C 1016.9 hPa Calm     99% 0.0 mm 0 W/m2
20:49 5.7 °C 5.6 °C 1017.3 hPa Calm     99% 0.0 mm 0 W/m2
20:54 5.6 °C 5.5 °C 1017.6 hPa Calm     99% 0.0 mm 0 W/m2
20:59 5.6 °C 5.5 °C 1017.6 hPa Calm     99% 0.0 mm 0 W/m2
21:04 5.6 °C 5.5 °C 1018.0 hPa Calm     99% 0.0 mm 0 W/m2
21:09 5.7 °C 5.6 °C 1018.0 hPa Calm     99% 0.0 mm 0 W/m2
21:14 5.6 °C 5.5 °C 1018.0 hPa Calm     99% 0.0 mm 0 W/m2
21:19 5.6 °C 5.5 °C 1018.0 hPa Calm     99% 0.0 mm 0 W/m2
21:24 5.6 °C 5.5 °C 1018.0 hPa Calm     99% 0.0 mm 0 W/m2
21:29 5.3 °C 5.2 °C 1018.0 hPa Calm     99% 0.0 mm 0 W/m2
21:34 5.2 °C 5.1 °C 1017.6 hPa Calm     99% 0.0 mm 0 W/m2
21:39 5.2 °C 5.1 °C 1017.6 hPa Calm     99% 0.0 mm 0 W/m2
21:44 5.2 °C 5.1 °C 1017.6 hPa Calm     99% 0.0 mm 0 W/m2
21:49 5.1 °C 5 °C 1017.6 hPa Calm     99% 0.0 mm 0 W/m2
21:54 5.1 °C 5 °C 1017.6 hPa Calm     99% 0.0 mm 0 W/m2
21:59 5.1 °C 5 °C 1017.6 hPa Calm     99% 0.0 mm 0 W/m2
22:04 5.1 °C 5 °C 1018.0 hPa Calm     99% 0.0 mm 0 W/m2
22:09 5.1 °C 5 °C 1018.0 hPa Calm     99% 0.0 mm 0 W/m2
22:14 5.1 °C 5 °C 1018.0 hPa Calm     99% 0.0 mm 0 W/m2
22:19 5.1 °C 5 °C 1018.3 hPa Calm   4 km/h 99% 0.0 mm 0 W/m2
22:24 5.1 °C 5 °C 1018.3 hPa Calm   4 km/h 99% 0.0 mm 0 W/m2
22:29 5.2 °C 5.1 °C 1018.6 hPa Calm     99% 0.0 mm 0 W/m2
22:34 5.2 °C 5.1 °C 1018.6 hPa Calm     99% 0.0 mm 0 W/m2
22:39 5.1 °C 5 °C 1018.3 hPa Calm     99% 0.0 mm 0 W/m2
22:44 5.2 °C 5.1 °C 1018.3 hPa Calm     99% 0.0 mm 0 W/m2
22:49 5.2 °C 5.1 °C 1018.3 hPa Calm     99% 0.0 mm 0 W/m2
22:54 5.2 °C 5.1 °C 1018.3 hPa Calm     99% 0.0 mm 0 W/m2
22:59 5.2 °C 5.1 °C 1018.3 hPa Calm     99% 0.0 mm 0 W/m2
23:04 5.2 °C 5.1 °C 1018.3 hPa Calm     99% 0.0 mm 0 W/m2
23:09 5.2 °C 5 °C 1018.3 hPa Calm     99% 0.0 mm 0 W/m2
23:14 5 °C 4.9 °C 1018.6 hPa Calm     99% 0.0 mm 0 W/m2
23:19 5 °C 4.9 °C 1018.6 hPa Calm     99% 0.0 mm 0 W/m2
23:24 5 °C 4.9 °C 1018.6 hPa Calm     99% 0.0 mm 0 W/m2
23:29 5.1 °C 5 °C 1018.6 hPa Calm     99% 0.0 mm 0 W/m2
23:34 5.1 °C 5 °C 1019.0 hPa Calm     99% 0.0 mm 0 W/m2
23:39 5.1 °C 5 °C 1018.6 hPa Calm     99% 0.0 mm 0 W/m2
23:44 5.1 °C 5 °C 1018.6 hPa Calm     99% 0.0 mm 0 W/m2
23:49 5.1 °C 5 °C 1019.0 hPa Calm     99% 0.0 mm 0 W/m2
23:54 4.9 °C 4.8 °C 1019.0 hPa Calm     99% 0.0 mm 0 W/m2
23:59 4.9 °C 4.8 °C 1019.0 hPa Calm     99% 0.0 mm 0 W/m2
Juneau County Weather
Compliments of Weather Underground - 2 mb